sensor_id;sensor_type;location;lat;lon;timestamp;P1;durP1;ratioP1;P2;durP2;ratioP2
19812;SDS011;10066;48.108;11.448;2023-04-25T00:02:13;3.37;;;1.50;;
19812;SDS011;10066;48.108;11.448;2023-04-25T00:04:41;2.23;;;1.80;;
19812;SDS011;10066;48.108;11.448;2023-04-25T00:07:09;2.13;;;1.40;;
19812;SDS011;10066;48.108;11.448;2023-04-25T00:09:36;2.87;;;1.50;;
19812;SDS011;10066;48.108;11.448;2023-04-25T00:12:04;2.23;;;1.47;;
19812;SDS011;10066;48.108;11.448;2023-04-25T00:14:31;2.27;;;1.50;;
19812;SDS011;10066;48.108;11.448;2023-04-25T00:16:59;2.10;;;1.43;;
19812;SDS011;10066;48.108;11.448;2023-04-25T00:19:25;3.47;;;1.40;;
19812;SDS011;10066;48.108;11.448;2023-04-25T00:21:54;2.90;;;1.17;;
19812;SDS011;10066;48.108;11.448;2023-04-25T00:24:21;1.67;;;1.47;;
19812;SDS011;10066;48.108;11.448;2023-04-25T00:26:48;1.40;;;1.20;;
19812;SDS011;10066;48.108;11.448;2023-04-25T00:29:15;1.47;;;1.33;;
19812;SDS011;10066;48.108;11.448;2023-04-25T00:31:42;3.60;;;1.40;;
19812;SDS011;10066;48.108;11.448;2023-04-25T00:34:08;3.17;;;1.50;;
19812;SDS011;10066;48.108;11.448;2023-04-25T00:36:36;1.73;;;1.50;;
19812;SDS011;10066;48.108;11.448;2023-04-25T00:39:04;2.33;;;1.30;;
19812;SDS011;10066;48.108;11.448;2023-04-25T00:41:31;2.37;;;1.33;;
19812;SDS011;10066;48.108;11.448;2023-04-25T00:43:59;2.00;;;1.30;;
19812;SDS011;10066;48.108;11.448;2023-04-25T00:46:27;3.80;;;1.50;;
19812;SDS011;10066;48.108;11.448;2023-04-25T00:48:55;3.30;;;1.40;;
19812;SDS011;10066;48.108;11.448;2023-04-25T00:51:22;2.63;;;1.50;;
19812;SDS011;10066;48.108;11.448;2023-04-25T00:53:50;2.63;;;1.30;;
19812;SDS011;10066;48.108;11.448;2023-04-25T00:56:18;2.27;;;1.40;;
19812;SDS011;10066;48.108;11.448;2023-04-25T00:58:46;2.90;;;1.50;;
19812;SDS011;10066;48.108;11.448;2023-04-25T01:01:16;2.53;;;1.30;;
19812;SDS011;10066;48.108;11.448;2023-04-25T01:03:43;2.93;;;1.50;;
19812;SDS011;10066;48.108;11.448;2023-04-25T01:06:12;3.83;;;1.50;;
19812;SDS011;10066;48.108;11.448;2023-04-25T01:08:39;5.53;;;1.63;;
19812;SDS011;10066;48.108;11.448;2023-04-25T01:11:06;2.50;;;1.37;;
19812;SDS011;10066;48.108;11.448;2023-04-25T01:13:35;1.97;;;1.47;;
19812;SDS011;10066;48.108;11.448;2023-04-25T01:16:02;2.53;;;1.50;;
19812;SDS011;10066;48.108;11.448;2023-04-25T01:18:31;3.10;;;1.70;;
19812;SDS011;10066;48.108;11.448;2023-04-25T01:21:02;3.40;;;1.30;;
19812;SDS011;10066;48.108;11.448;2023-04-25T01:23:33;2.13;;;1.20;;
19812;SDS011;10066;48.108;11.448;2023-04-25T01:26:00;3.00;;;1.50;;
19812;SDS011;10066;48.108;11.448;2023-04-25T01:28:27;2.77;;;1.43;;
19812;SDS011;10066;48.108;11.448;2023-04-25T01:30:55;3.23;;;1.73;;
19812;SDS011;10066;48.108;11.448;2023-04-25T01:33:23;2.63;;;1.43;;
19812;SDS011;10066;48.108;11.448;2023-04-25T01:35:50;1.80;;;1.30;;
19812;SDS011;10066;48.108;11.448;2023-04-25T01:38:18;1.90;;;1.50;;
19812;SDS011;10066;48.108;11.448;2023-04-25T01:40:45;1.43;;;1.30;;
19812;SDS011;10066;48.108;11.448;2023-04-25T01:43:12;2.73;;;1.50;;
19812;SDS011;10066;48.108;11.448;2023-04-25T01:45:40;3.00;;;1.40;;
19812;SDS011;10066;48.108;11.448;2023-04-25T01:48:07;3.53;;;1.77;;
19812;SDS011;10066;48.108;11.448;2023-04-25T01:50:34;2.87;;;1.63;;
19812;SDS011;10066;48.108;11.448;2023-04-25T01:53:01;1.97;;;1.50;;
19812;SDS011;10066;48.108;11.448;2023-04-25T01:55:29;4.10;;;1.43;;
19812;SDS011;10066;48.108;11.448;2023-04-25T01:57:57;2.07;;;1.60;;
19812;SDS011;10066;48.108;11.448;2023-04-25T02:00:25;2.50;;;1.63;;
19812;SDS011;10066;48.108;11.448;2023-04-25T02:02:52;4.00;;;1.90;;
19812;SDS011;10066;48.108;11.448;2023-04-25T02:05:19;2.30;;;1.80;;
19812;SDS011;10066;48.108;11.448;2023-04-25T02:07:46;3.10;;;2.07;;
19812;SDS011;10066;48.108;11.448;2023-04-25T02:10:13;2.77;;;1.70;;
19812;SDS011;10066;48.108;11.448;2023-04-25T02:12:42;3.40;;;1.83;;
19812;SDS011;10066;48.108;11.448;2023-04-25T02:15:09;2.30;;;1.90;;
19812;SDS011;10066;48.108;11.448;2023-04-25T02:17:36;3.00;;;1.60;;
19812;SDS011;10066;48.108;11.448;2023-04-25T02:20:04;1.93;;;1.60;;
19812;SDS011;10066;48.108;11.448;2023-04-25T02:22:32;2.77;;;2.00;;
19812;SDS011;10066;48.108;11.448;2023-04-25T02:25:00;3.20;;;1.70;;
19812;SDS011;10066;48.108;11.448;2023-04-25T02:27:29;3.37;;;1.83;;
19812;SDS011;10066;48.108;11.448;2023-04-25T02:29:57;4.77;;;1.80;;
19812;SDS011;10066;48.108;11.448;2023-04-25T02:32:24;3.60;;;1.60;;
19812;SDS011;10066;48.108;11.448;2023-04-25T02:34:51;4.53;;;2.03;;
19812;SDS011;10066;48.108;11.448;2023-04-25T02:37:18;2.67;;;2.07;;
19812;SDS011;10066;48.108;11.448;2023-04-25T02:39:45;3.80;;;1.80;;
19812;SDS011;10066;48.108;11.448;2023-04-25T02:42:12;2.00;;;1.60;;
19812;SDS011;10066;48.108;11.448;2023-04-25T02:44:39;2.77;;;1.70;;
19812;SDS011;10066;48.108;11.448;2023-04-25T02:47:07;2.60;;;1.50;;
19812;SDS011;10066;48.108;11.448;2023-04-25T02:49:34;4.43;;;1.80;;
19812;SDS011;10066;48.108;11.448;2023-04-25T02:52:01;3.20;;;1.80;;
19812;SDS011;10066;48.108;11.448;2023-04-25T02:54:29;4.07;;;1.57;;
19812;SDS011;10066;48.108;11.448;2023-04-25T02:56:56;3.67;;;1.80;;
19812;SDS011;10066;48.108;11.448;2023-04-25T02:59:23;3.13;;;1.70;;
19812;SDS011;10066;48.108;11.448;2023-04-25T03:01:50;4.10;;;1.70;;
19812;SDS011;10066;48.108;11.448;2023-04-25T03:04:18;5.30;;;1.87;;
19812;SDS011;10066;48.108;11.448;2023-04-25T03:06:45;1.53;;;1.30;;
19812;SDS011;10066;48.108;11.448;2023-04-25T03:09:12;2.80;;;1.50;;
19812;SDS011;10066;48.108;11.448;2023-04-25T03:11:39;2.80;;;1.43;;
19812;SDS011;10066;48.108;11.448;2023-04-25T03:14:06;2.17;;;1.50;;
19812;SDS011;10066;48.108;11.448;2023-04-25T03:16:33;3.90;;;1.80;;
19812;SDS011;10066;48.108;11.448;2023-04-25T03:19:00;2.87;;;1.60;;
19812;SDS011;10066;48.108;11.448;2023-04-25T03:21:29;3.00;;;1.90;;
19812;SDS011;10066;48.108;11.448;2023-04-25T03:23:57;1.67;;;1.50;;
19812;SDS011;10066;48.108;11.448;2023-04-25T03:26:24;3.87;;;1.90;;
19812;SDS011;10066;48.108;11.448;2023-04-25T03:28:51;2.67;;;1.50;;
19812;SDS011;10066;48.108;11.448;2023-04-25T03:31:17;3.03;;;1.90;;
19812;SDS011;10066;48.108;11.448;2023-04-25T03:33:44;6.20;;;1.63;;
19812;SDS011;10066;48.108;11.448;2023-04-25T03:36:11;2.83;;;1.60;;
19812;SDS011;10066;48.108;11.448;2023-04-25T03:38:39;4.83;;;1.70;;
19812;SDS011;10066;48.108;11.448;2023-04-25T03:41:06;2.47;;;1.53;;
19812;SDS011;10066;48.108;11.448;2023-04-25T03:43:34;4.20;;;1.40;;
19812;SDS011;10066;48.108;11.448;2023-04-25T03:46:00;2.73;;;1.50;;
19812;SDS011;10066;48.108;11.448;2023-04-25T03:48:27;3.93;;;1.77;;
19812;SDS011;10066;48.108;11.448;2023-04-25T03:50:54;4.37;;;1.70;;
19812;SDS011;10066;48.108;11.448;2023-04-25T03:53:21;3.70;;;1.30;;
19812;SDS011;10066;48.108;11.448;2023-04-25T03:55:49;1.60;;;1.30;;
19812;SDS011;10066;48.108;11.448;2023-04-25T03:58:16;4.10;;;1.50;;
19812;SDS011;10066;48.108;11.448;2023-04-25T04:00:43;3.43;;;1.60;;
19812;SDS011;10066;48.108;11.448;2023-04-25T04:03:10;5.10;;;1.73;;
19812;SDS011;10066;48.108;11.448;2023-04-25T04:05:37;4.13;;;1.60;;
19812;SDS011;10066;48.108;11.448;2023-04-25T04:08:05;4.70;;;1.60;;
19812;SDS011;10066;48.108;11.448;2023-04-25T04:10:32;3.70;;;1.50;;
19812;SDS011;10066;48.108;11.448;2023-04-25T04:13:01;3.10;;;1.50;;
19812;SDS011;10066;48.108;11.448;2023-04-25T04:15:27;2.37;;;1.27;;
19812;SDS011;10066;48.108;11.448;2023-04-25T04:17:57;2.37;;;1.30;;
19812;SDS011;10066;48.108;11.448;2023-04-25T04:20:27;2.47;;;1.50;;
19812;SDS011;10066;48.108;11.448;2023-04-25T04:22:54;4.43;;;1.40;;
19812;SDS011;10066;48.108;11.448;2023-04-25T04:25:21;3.33;;;1.50;;
19812;SDS011;10066;48.108;11.448;2023-04-25T04:27:49;4.10;;;1.67;;
19812;SDS011;10066;48.108;11.448;2023-04-25T04:30:21;2.13;;;1.40;;
19812;SDS011;10066;48.108;11.448;2023-04-25T04:32:49;2.60;;;1.30;;
19812;SDS011;10066;48.108;11.448;2023-04-25T04:35:16;2.87;;;1.40;;
19812;SDS011;10066;48.108;11.448;2023-04-25T04:37:43;3.10;;;1.40;;
19812;SDS011;10066;48.108;11.448;2023-04-25T04:40:11;2.27;;;1.20;;
19812;SDS011;10066;48.108;11.448;2023-04-25T04:42:40;4.90;;;1.53;;
19812;SDS011;10066;48.108;11.448;2023-04-25T04:45:07;4.17;;;1.30;;
19812;SDS011;10066;48.108;11.448;2023-04-25T04:47:36;4.03;;;1.53;;
19812;SDS011;10066;48.108;11.448;2023-04-25T04:50:04;2.03;;;1.47;;
19812;SDS011;10066;48.108;11.448;2023-04-25T04:52:32;2.83;;;1.50;;
19812;SDS011;10066;48.108;11.448;2023-04-25T04:54:59;1.97;;;1.40;;
19812;SDS011;10066;48.108;11.448;2023-04-25T04:57:25;4.63;;;1.53;;
19812;SDS011;10066;48.108;11.448;2023-04-25T04:59:53;7.07;;;1.50;;
19812;SDS011;10066;48.108;11.448;2023-04-25T05:02:20;2.30;;;1.37;;
19812;SDS011;10066;48.108;11.448;2023-04-25T05:04:48;1.93;;;1.27;;
19812;SDS011;10066;48.108;11.448;2023-04-25T05:07:16;2.97;;;1.50;;
19812;SDS011;10066;48.108;11.448;2023-04-25T05:09:43;5.50;;;1.87;;
19812;SDS011;10066;48.108;11.448;2023-04-25T05:12:10;3.67;;;1.63;;
19812;SDS011;10066;48.108;11.448;2023-04-25T05:14:37;4.30;;;1.77;;
19812;SDS011;10066;48.108;11.448;2023-04-25T05:17:04;3.80;;;2.20;;
19812;SDS011;10066;48.108;11.448;2023-04-25T05:19:33;7.30;;;1.57;;
19812;SDS011;10066;48.108;11.448;2023-04-25T05:22:02;2.93;;;1.50;;
19812;SDS011;10066;48.108;11.448;2023-04-25T05:24:31;3.53;;;1.53;;
19812;SDS011;10066;48.108;11.448;2023-04-25T05:26:58;3.87;;;1.63;;
19812;SDS011;10066;48.108;11.448;2023-04-25T05:29:25;4.67;;;1.70;;
19812;SDS011;10066;48.108;11.448;2023-04-25T05:31:52;4.03;;;1.60;;
19812;SDS011;10066;48.108;11.448;2023-04-25T05:34:19;3.57;;;1.53;;
19812;SDS011;10066;48.108;11.448;2023-04-25T05:36:46;4.23;;;1.50;;
19812;SDS011;10066;48.108;11.448;2023-04-25T05:39:15;5.73;;;1.37;;
19812;SDS011;10066;48.108;11.448;2023-04-25T05:41:42;3.53;;;1.63;;
19812;SDS011;10066;48.108;11.448;2023-04-25T05:44:09;3.10;;;1.67;;
19812;SDS011;10066;48.108;11.448;2023-04-25T05:46:36;1.57;;;1.40;;
19812;SDS011;10066;48.108;11.448;2023-04-25T05:49:03;2.63;;;1.60;;
19812;SDS011;10066;48.108;11.448;2023-04-25T05:51:30;3.57;;;1.60;;
19812;SDS011;10066;48.108;11.448;2023-04-25T05:53:57;4.07;;;1.67;;
19812;SDS011;10066;48.108;11.448;2023-04-25T05:56:25;3.30;;;1.50;;
19812;SDS011;10066;48.108;11.448;2023-04-25T05:58:52;3.77;;;1.70;;
19812;SDS011;10066;48.108;11.448;2023-04-25T06:01:20;3.60;;;1.73;;
19812;SDS011;10066;48.108;11.448;2023-04-25T06:03:47;8.27;;;1.80;;
19812;SDS011;10066;48.108;11.448;2023-04-25T06:06:16;2.93;;;1.47;;
19812;SDS011;10066;48.108;11.448;2023-04-25T06:08:43;3.53;;;1.70;;
19812;SDS011;10066;48.108;11.448;2023-04-25T06:11:11;3.23;;;1.53;;
19812;SDS011;10066;48.108;11.448;2023-04-25T06:13:39;6.17;;;1.40;;
19812;SDS011;10066;48.108;11.448;2023-04-25T06:16:06;1.90;;;1.20;;
19812;SDS011;10066;48.108;11.448;2023-04-25T06:18:33;4.43;;;1.47;;
19812;SDS011;10066;48.108;11.448;2023-04-25T06:21:00;3.13;;;1.40;;
19812;SDS011;10066;48.108;11.448;2023-04-25T06:23:28;2.77;;;1.23;;
19812;SDS011;10066;48.108;11.448;2023-04-25T06:25:55;2.10;;;1.20;;
19812;SDS011;10066;48.108;11.448;2023-04-25T06:28:22;2.93;;;1.20;;
19812;SDS011;10066;48.108;11.448;2023-04-25T06:30:50;3.23;;;1.77;;
19812;SDS011;10066;48.108;11.448;2023-04-25T06:33:17;2.47;;;1.80;;
19812;SDS011;10066;48.108;11.448;2023-04-25T06:35:45;3.00;;;1.60;;
19812;SDS011;10066;48.108;11.448;2023-04-25T06:38:12;4.47;;;1.90;;
19812;SDS011;10066;48.108;11.448;2023-04-25T06:40:39;2.53;;;1.60;;
19812;SDS011;10066;48.108;11.448;2023-04-25T06:43:05;2.07;;;1.80;;
19812;SDS011;10066;48.108;11.448;2023-04-25T06:45:32;4.33;;;2.20;;
19812;SDS011;10066;48.108;11.448;2023-04-25T06:48:01;5.23;;;2.17;;
19812;SDS011;10066;48.108;11.448;2023-04-25T06:50:27;4.20;;;2.00;;
19812;SDS011;10066;48.108;11.448;2023-04-25T06:52:54;2.87;;;2.03;;
19812;SDS011;10066;48.108;11.448;2023-04-25T06:55:21;6.50;;;2.60;;
19812;SDS011;10066;48.108;11.448;2023-04-25T06:57:48;4.83;;;2.27;;
19812;SDS011;10066;48.108;11.448;2023-04-25T07:00:15;4.53;;;2.10;;
19812;SDS011;10066;48.108;11.448;2023-04-25T07:02:43;4.87;;;2.40;;
19812;SDS011;10066;48.108;11.448;2023-04-25T07:05:11;4.80;;;2.23;;
19812;SDS011;10066;48.108;11.448;2023-04-25T07:07:38;6.83;;;2.40;;
19812;SDS011;10066;48.108;11.448;2023-04-25T07:10:05;4.20;;;2.20;;
19812;SDS011;10066;48.108;11.448;2023-04-25T07:12:32;3.00;;;2.30;;
19812;SDS011;10066;48.108;11.448;2023-04-25T07:14:59;3.53;;;2.10;;
19812;SDS011;10066;48.108;11.448;2023-04-25T07:17:31;3.90;;;2.23;;
19812;SDS011;10066;48.108;11.448;2023-04-25T07:19:58;4.00;;;2.03;;
19812;SDS011;10066;48.108;11.448;2023-04-25T07:22:27;3.87;;;2.30;;
19812;SDS011;10066;48.108;11.448;2023-04-25T07:24:54;4.80;;;1.80;;
19812;SDS011;10066;48.108;11.448;2023-04-25T07:27:21;2.77;;;2.00;;
19812;SDS011;10066;48.108;11.448;2023-04-25T07:29:48;2.60;;;1.70;;
19812;SDS011;10066;48.108;11.448;2023-04-25T07:32:15;3.80;;;2.10;;
19812;SDS011;10066;48.108;11.448;2023-04-25T07:34:41;3.57;;;1.90;;
19812;SDS011;10066;48.108;11.448;2023-04-25T07:37:08;5.50;;;2.23;;
19812;SDS011;10066;48.108;11.448;2023-04-25T07:39:37;3.17;;;1.83;;
19812;SDS011;10066;48.108;11.448;2023-04-25T07:42:04;6.23;;;2.33;;
19812;SDS011;10066;48.108;11.448;2023-04-25T07:44:33;5.60;;;2.43;;
19812;SDS011;10066;48.108;11.448;2023-04-25T07:47:03;4.93;;;2.10;;
19812;SDS011;10066;48.108;11.448;2023-04-25T07:49:32;4.47;;;1.97;;
19812;SDS011;10066;48.108;11.448;2023-04-25T07:51:59;2.87;;;1.87;;
19812;SDS011;10066;48.108;11.448;2023-04-25T07:54:25;3.17;;;1.90;;
19812;SDS011;10066;48.108;11.448;2023-04-25T07:56:54;6.67;;;1.90;;
19812;SDS011;10066;48.108;11.448;2023-04-25T07:59:21;3.53;;;2.07;;
19812;SDS011;10066;48.108;11.448;2023-04-25T08:01:50;2.53;;;1.80;;
19812;SDS011;10066;48.108;11.448;2023-04-25T08:04:18;3.10;;;2.00;;
19812;SDS011;10066;48.108;11.448;2023-04-25T08:06:45;7.57;;;2.20;;
19812;SDS011;10066;48.108;11.448;2023-04-25T08:09:12;5.43;;;1.67;;
19812;SDS011;10066;48.108;11.448;2023-04-25T08:11:40;4.20;;;1.90;;
19812;SDS011;10066;48.108;11.448;2023-04-25T08:14:11;3.43;;;2.00;;
19812;SDS011;10066;48.108;11.448;2023-04-25T08:16:38;2.57;;;1.90;;
19812;SDS011;10066;48.108;11.448;2023-04-25T08:19:06;3.37;;;1.70;;
19812;SDS011;10066;48.108;11.448;2023-04-25T08:21:33;3.40;;;1.77;;
19812;SDS011;10066;48.108;11.448;2023-04-25T08:23:59;4.17;;;2.00;;
19812;SDS011;10066;48.108;11.448;2023-04-25T08:26:26;4.10;;;1.70;;
19812;SDS011;10066;48.108;11.448;2023-04-25T08:28:54;6.07;;;1.80;;
19812;SDS011;10066;48.108;11.448;2023-04-25T08:31:22;2.97;;;1.60;;
19812;SDS011;10066;48.108;11.448;2023-04-25T08:33:49;3.70;;;1.70;;
19812;SDS011;10066;48.108;11.448;2023-04-25T08:36:16;5.33;;;1.90;;
19812;SDS011;10066;48.108;11.448;2023-04-25T08:38:43;4.90;;;1.93;;
19812;SDS011;10066;48.108;11.448;2023-04-25T08:41:11;4.57;;;1.70;;
19812;SDS011;10066;48.108;11.448;2023-04-25T08:43:41;3.87;;;1.63;;
19812;SDS011;10066;48.108;11.448;2023-04-25T08:46:10;7.10;;;1.90;;
19812;SDS011;10066;48.108;11.448;2023-04-25T08:48:40;3.00;;;1.50;;
19812;SDS011;10066;48.108;11.448;2023-04-25T08:51:08;2.43;;;1.47;;
19812;SDS011;10066;48.108;11.448;2023-04-25T08:53:41;5.73;;;1.90;;
19812;SDS011;10066;48.108;11.448;2023-04-25T08:56:09;3.60;;;1.70;;
19812;SDS011;10066;48.108;11.448;2023-04-25T08:58:38;4.43;;;1.87;;
19812;SDS011;10066;48.108;11.448;2023-04-25T09:01:06;8.87;;;1.70;;
19812;SDS011;10066;48.108;11.448;2023-04-25T09:03:33;3.67;;;1.60;;
19812;SDS011;10066;48.108;11.448;2023-04-25T09:06:03;2.43;;;1.30;;
19812;SDS011;10066;48.108;11.448;2023-04-25T09:08:30;1.67;;;1.17;;
19812;SDS011;10066;48.108;11.448;2023-04-25T09:10:57;2.30;;;1.30;;
19812;SDS011;10066;48.108;11.448;2023-04-25T09:13:25;2.13;;;1.20;;
19812;SDS011;10066;48.108;11.448;2023-04-25T09:15:53;1.80;;;1.03;;
19812;SDS011;10066;48.108;11.448;2023-04-25T09:18:22;2.20;;;1.00;;
19812;SDS011;10066;48.108;11.448;2023-04-25T09:20:51;2.23;;;1.03;;
19812;SDS011;10066;48.108;11.448;2023-04-25T09:23:20;2.40;;;0.93;;
19812;SDS011;10066;48.108;11.448;2023-04-25T09:25:48;1.43;;;0.97;;
19812;SDS011;10066;48.108;11.448;2023-04-25T09:28:17;1.50;;;1.00;;
19812;SDS011;10066;48.108;11.448;2023-04-25T09:30:54;3.00;;;1.00;;
19812;SDS011;10066;48.108;11.448;2023-04-25T09:33:26;1.33;;;0.87;;
19812;SDS011;10066;48.108;11.448;2023-04-25T09:35:56;2.30;;;0.90;;
19812;SDS011;10066;48.108;11.448;2023-04-25T09:38:31;2.37;;;1.17;;
19812;SDS011;10066;48.108;11.448;2023-04-25T09:40:58;2.60;;;1.13;;
19812;SDS011;10066;48.108;11.448;2023-04-25T09:43:26;2.17;;;1.00;;
19812;SDS011;10066;48.108;11.448;2023-04-25T09:45:54;1.43;;;0.90;;
19812;SDS011;10066;48.108;11.448;2023-04-25T09:48:24;2.33;;;1.27;;
19812;SDS011;10066;48.108;11.448;2023-04-25T09:51:05;1.20;;;0.87;;
19812;SDS011;10066;48.108;11.448;2023-04-25T09:53:35;1.30;;;0.80;;
19812;SDS011;10066;48.108;11.448;2023-04-25T09:56:03;1.63;;;1.00;;
19812;SDS011;10066;48.108;11.448;2023-04-25T09:58:32;0.73;;;0.50;;
19812;SDS011;10066;48.108;11.448;2023-04-25T10:01:00;1.67;;;0.93;;
19812;SDS011;10066;48.108;11.448;2023-04-25T10:03:29;1.33;;;1.00;;
19812;SDS011;10066;48.108;11.448;2023-04-25T10:05:59;1.87;;;0.93;;
19812;SDS011;10066;48.108;11.448;2023-04-25T10:08:28;2.53;;;0.90;;
19812;SDS011;10066;48.108;11.448;2023-04-25T10:11:02;2.40;;;1.00;;
19812;SDS011;10066;48.108;11.448;2023-04-25T10:13:30;2.57;;;1.00;;
19812;SDS011;10066;48.108;11.448;2023-04-25T10:15:58;4.47;;;0.97;;
19812;SDS011;10066;48.108;11.448;2023-04-25T10:18:32;3.33;;;0.93;;
19812;SDS011;10066;48.108;11.448;2023-04-25T10:21:00;3.23;;;1.13;;
19812;SDS011;10066;48.108;11.448;2023-04-25T10:23:31;3.30;;;0.87;;
19812;SDS011;10066;48.108;11.448;2023-04-25T10:26:00;2.07;;;1.00;;
19812;SDS011;10066;48.108;11.448;2023-04-25T10:28:28;3.23;;;1.00;;
19812;SDS011;10066;48.108;11.448;2023-04-25T10:30:58;1.83;;;1.00;;
19812;SDS011;10066;48.108;11.448;2023-04-25T10:33:29;3.37;;;1.20;;
19812;SDS011;10066;48.108;11.448;2023-04-25T10:36:07;5.50;;;1.10;;
19812;SDS011;10066;48.108;11.448;2023-04-25T10:38:35;3.33;;;1.00;;
19812;SDS011;10066;48.108;11.448;2023-04-25T10:41:04;2.33;;;1.43;;
19812;SDS011;10066;48.108;11.448;2023-04-25T10:43:33;3.93;;;1.40;;
19812;SDS011;10066;48.108;11.448;2023-04-25T10:46:18;1.87;;;1.37;;
19812;SDS011;10066;48.108;11.448;2023-04-25T10:48:46;3.53;;;1.20;;
19812;SDS011;10066;48.108;11.448;2023-04-25T10:51:21;5.17;;;1.67;;
19812;SDS011;10066;48.108;11.448;2023-04-25T10:53:56;2.17;;;1.00;;
19812;SDS011;10066;48.108;11.448;2023-04-25T10:56:26;4.80;;;1.40;;
19812;SDS011;10066;48.108;11.448;2023-04-25T10:59:07;8.20;;;1.40;;
19812;SDS011;10066;48.108;11.448;2023-04-25T11:01:36;2.70;;;1.23;;
19812;SDS011;10066;48.108;11.448;2023-04-25T11:04:05;3.10;;;1.13;;
19812;SDS011;10066;48.108;11.448;2023-04-25T11:06:35;2.67;;;0.90;;
19812;SDS011;10066;48.108;11.448;2023-04-25T11:09:12;2.60;;;1.03;;
19812;SDS011;10066;48.108;11.448;2023-04-25T11:11:41;1.73;;;1.10;;
19812;SDS011;10066;48.108;11.448;2023-04-25T11:14:08;3.93;;;1.50;;
19812;SDS011;10066;48.108;11.448;2023-04-25T11:16:35;1.83;;;1.30;;
19812;SDS011;10066;48.108;11.448;2023-04-25T11:19:02;5.10;;;1.50;;
19812;SDS011;10066;48.108;11.448;2023-04-25T11:21:30;2.23;;;1.30;;
19812;SDS011;10066;48.108;11.448;2023-04-25T11:23:58;3.33;;;1.60;;
19812;SDS011;10066;48.108;11.448;2023-04-25T11:26:26;1.87;;;0.90;;
19812;SDS011;10066;48.108;11.448;2023-04-25T11:28:58;0.80;;;0.70;;
19812;SDS011;10066;48.108;11.448;2023-04-25T11:31:25;0.93;;;0.63;;
19812;SDS011;10066;48.108;11.448;2023-04-25T11:33:53;0.93;;;0.60;;
19812;SDS011;10066;48.108;11.448;2023-04-25T11:36:20;1.10;;;0.60;;
19812;SDS011;10066;48.108;11.448;2023-04-25T11:38:48;1.07;;;0.50;;
19812;SDS011;10066;48.108;11.448;2023-04-25T11:41:16;1.07;;;0.43;;
19812;SDS011;10066;48.108;11.448;2023-04-25T11:43:43;0.90;;;0.70;;
19812;SDS011;10066;48.108;11.448;2023-04-25T11:46:12;1.57;;;0.80;;
19812;SDS011;10066;48.108;11.448;2023-04-25T11:48:39;1.20;;;0.80;;
19812;SDS011;10066;48.108;11.448;2023-04-25T11:51:06;3.63;;;0.80;;
19812;SDS011;10066;48.108;11.448;2023-04-25T11:53:34;1.83;;;1.17;;
19812;SDS011;10066;48.108;11.448;2023-04-25T11:56:01;3.43;;;1.20;;
19812;SDS011;10066;48.108;11.448;2023-04-25T12:01:26;2.90;;;1.53;;
19812;SDS011;10066;48.108;11.448;2023-04-25T12:03:53;4.53;;;1.10;;
19812;SDS011;10066;48.108;11.448;2023-04-25T12:06:20;3.07;;;1.00;;
19812;SDS011;10066;48.108;11.448;2023-04-25T12:09:02;1.50;;;1.00;;
19812;SDS011;10066;48.108;11.448;2023-04-25T12:11:30;1.23;;;0.70;;
19812;SDS011;10066;48.108;11.448;2023-04-25T12:14:01;2.97;;;1.00;;
19812;SDS011;10066;48.108;11.448;2023-04-25T12:16:31;2.57;;;0.73;;
19812;SDS011;10066;48.108;11.448;2023-04-25T12:19:06;0.80;;;0.70;;
19812;SDS011;10066;48.108;11.448;2023-04-25T12:21:33;2.40;;;0.97;;
19812;SDS011;10066;48.108;11.448;2023-04-25T12:24:10;1.23;;;1.03;;
19812;SDS011;10066;48.108;11.448;2023-04-25T12:26:51;2.27;;;0.80;;
19812;SDS011;10066;48.108;11.448;2023-04-25T12:29:20;0.70;;;0.67;;
19812;SDS011;10066;48.108;11.448;2023-04-25T12:31:49;0.70;;;0.70;;
19812;SDS011;10066;48.108;11.448;2023-04-25T12:34:17;0.77;;;0.70;;
19812;SDS011;10066;48.108;11.448;2023-04-25T12:36:44;2.33;;;1.00;;
19812;SDS011;10066;48.108;11.448;2023-04-25T12:39:15;1.50;;;0.90;;
19812;SDS011;10066;48.108;11.448;2023-04-25T12:41:42;2.33;;;0.63;;
19812;SDS011;10066;48.108;11.448;2023-04-25T12:44:09;0.97;;;0.60;;
19812;SDS011;10066;48.108;11.448;2023-04-25T12:46:36;3.37;;;1.00;;
19812;SDS011;10066;48.108;11.448;2023-04-25T12:49:05;3.03;;;0.70;;
19812;SDS011;10066;48.108;11.448;2023-04-25T12:51:32;0.90;;;0.60;;
19812;SDS011;10066;48.108;11.448;2023-04-25T12:53:59;1.97;;;0.80;;
19812;SDS011;10066;48.108;11.448;2023-04-25T12:56:27;1.00;;;0.67;;
19812;SDS011;10066;48.108;11.448;2023-04-25T12:58:54;3.13;;;0.90;;
19812;SDS011;10066;48.108;11.448;2023-04-25T13:01:21;1.30;;;0.70;;
19812;SDS011;10066;48.108;11.448;2023-04-25T13:03:49;0.90;;;0.77;;
19812;SDS011;10066;48.108;11.448;2023-04-25T13:06:17;0.90;;;0.60;;
19812;SDS011;10066;48.108;11.448;2023-04-25T13:08:45;2.00;;;1.00;;
19812;SDS011;10066;48.108;11.448;2023-04-25T13:11:12;1.20;;;0.80;;
19812;SDS011;10066;48.108;11.448;2023-04-25T13:13:41;0.83;;;0.70;;
19812;SDS011;10066;48.108;11.448;2023-04-25T13:16:08;2.33;;;0.63;;
19812;SDS011;10066;48.108;11.448;2023-04-25T13:18:35;0.70;;;0.50;;
19812;SDS011;10066;48.108;11.448;2023-04-25T13:21:03;0.67;;;0.67;;
19812;SDS011;10066;48.108;11.448;2023-04-25T13:23:31;1.70;;;0.70;;
19812;SDS011;10066;48.108;11.448;2023-04-25T13:25:58;1.37;;;0.90;;
19812;SDS011;10066;48.108;11.448;2023-04-25T13:28:26;0.73;;;0.60;;
19812;SDS011;10066;48.108;11.448;2023-04-25T13:30:53;0.93;;;0.73;;
19812;SDS011;10066;48.108;11.448;2023-04-25T13:33:20;2.00;;;0.70;;
19812;SDS011;10066;48.108;11.448;2023-04-25T13:35:47;1.90;;;0.67;;
19812;SDS011;10066;48.108;11.448;2023-04-25T13:38:19;0.70;;;0.50;;
19812;SDS011;10066;48.108;11.448;2023-04-25T13:40:49;2.13;;;0.87;;
19812;SDS011;10066;48.108;11.448;2023-04-25T13:43:17;1.07;;;0.70;;
19812;SDS011;10066;48.108;11.448;2023-04-25T13:45:45;1.47;;;0.70;;
19812;SDS011;10066;48.108;11.448;2023-04-25T13:48:13;1.07;;;0.63;;
19812;SDS011;10066;48.108;11.448;2023-04-25T13:50:40;3.33;;;0.63;;
19812;SDS011;10066;48.108;11.448;2023-04-25T13:53:07;0.40;;;0.40;;
19812;SDS011;10066;48.108;11.448;2023-04-25T13:55:34;0.30;;;0.30;;
19812;SDS011;10066;48.108;11.448;2023-04-25T13:58:03;0.60;;;0.60;;
19812;SDS011;10066;48.108;11.448;2023-04-25T14:00:33;1.10;;;0.70;;
19812;SDS011;10066;48.108;11.448;2023-04-25T14:03:02;1.00;;;0.90;;
19812;SDS011;10066;48.108;11.448;2023-04-25T14:05:32;1.10;;;0.80;;
19812;SDS011;10066;48.108;11.448;2023-04-25T14:08:03;1.83;;;0.60;;
19812;SDS011;10066;48.108;11.448;2023-04-25T14:10:30;1.37;;;0.50;;
19812;SDS011;10066;48.108;11.448;2023-04-25T14:12:57;1.67;;;0.73;;
19812;SDS011;10066;48.108;11.448;2023-04-25T14:15:27;1.13;;;0.70;;
19812;SDS011;10066;48.108;11.448;2023-04-25T14:17:54;1.03;;;0.70;;
19812;SDS011;10066;48.108;11.448;2023-04-25T14:20:20;1.43;;;0.80;;
19812;SDS011;10066;48.108;11.448;2023-04-25T14:22:48;0.90;;;0.80;;
19812;SDS011;10066;48.108;11.448;2023-04-25T14:25:15;1.20;;;1.10;;
19812;SDS011;10066;48.108;11.448;2023-04-25T14:27:42;1.23;;;0.90;;
19812;SDS011;10066;48.108;11.448;2023-04-25T14:30:12;1.10;;;1.00;;
19812;SDS011;10066;48.108;11.448;2023-04-25T14:32:41;1.77;;;0.87;;
19812;SDS011;10066;48.108;11.448;2023-04-25T14:35:08;1.13;;;0.90;;
19812;SDS011;10066;48.108;11.448;2023-04-25T14:37:35;1.13;;;0.90;;
19812;SDS011;10066;48.108;11.448;2023-04-25T14:40:02;1.10;;;0.83;;
19812;SDS011;10066;48.108;11.448;2023-04-25T14:42:30;0.80;;;0.73;;